Time;durP1;ratioP1;P1;durP2;ratioP2;P2;SDS_P1;SDS_P2;PMS_P1;PMS_P2;Temp;Humidity;BMP_temperature;BMP_pressure;BME280_temperature;BME280_humidity;BME280_pressure;Samples;Min_cycle;Max_cycle;Signal;HPM_P1;HPM_P2
2022/12/28 00:00:43;;;;;;;3.08;2.10;;;27.80;65.60;;;;;;4059873;29;20050;-49
2022/12/28 00:03:06;;;;;;;3.15;2.30;;;27.80;65.60;;;;;;4058397;29;20042;-49
2022/12/28 00:05:28;;;;;;;3.03;2.17;;;27.80;65.50;;;;;;4057155;29;20044;-49
2022/12/28 00:07:50;;;;;;;4.43;2.33;;;27.80;65.30;;;;;;4050285;29;20032;-46
2022/12/28 00:10:13;;;;;;;2.80;1.90;;;27.80;65.30;;;;;;4053690;29;20067;-47
2022/12/28 00:12:35;;;;;;;2.65;1.90;;;27.80;65.30;;;;;;4054647;29;20032;-46
2022/12/28 00:14:58;;;;;;;2.78;2.05;;;27.80;65.20;;;;;;4060106;29;20056;-49
2022/12/28 00:17:21;;;;;;;2.33;1.90;;;27.80;65.10;;;;;;4053485;29;20092;-47
2022/12/28 00:19:43;;;;;;;3.22;1.83;;;27.90;65.20;;;;;;4058666;29;20043;-47
2022/12/28 00:22:05;;;;;;;2.10;1.80;;;27.90;65.10;;;;;;4057109;29;20506;-50
2022/12/28 00:24:28;;;;;;;1.88;1.67;;;27.90;65.00;;;;;;4058795;29;20047;-44
2022/12/28 00:26:51;;;;;;;3.13;1.80;;;27.90;64.90;;;;;;4061084;29;20051;-47
2022/12/28 00:29:13;;;;;;;3.53;1.98;;;27.90;64.80;;;;;;4059819;29;20103;-44
2022/12/28 00:31:36;;;;;;;2.75;2.13;;;27.90;64.70;;;;;;4059062;29;20044;-48
2022/12/28 00:33:58;;;;;;;2.97;1.88;;;27.90;64.60;;;;;;4062823;29;20062;-49
2022/12/28 00:36:20;;;;;;;3.63;1.75;;;27.90;64.60;;;;;;4063061;29;20452;-51
2022/12/28 00:38:43;;;;;;;2.85;1.80;;;27.90;64.70;;;;;;4057011;29;20040;-43
2022/12/28 00:41:07;;;;;;;2.53;1.53;;;28.00;64.70;;;;;;4060748;29;20040;-50
2022/12/28 00:43:30;;;;;;;1.60;1.45;;;28.00;64.80;;;;;;4056915;29;20131;-49
2022/12/28 00:45:52;;;;;;;2.30;1.50;;;28.00;64.70;;;;;;4054058;29;20572;-48
2022/12/28 00:48:16;;;;;;;3.05;1.83;;;28.00;64.70;;;;;;4056516;29;20168;-48
2022/12/28 00:50:38;;;;;;;2.67;1.60;;;28.00;64.70;;;;;;4058612;29;20033;-44
2022/12/28 00:53:01;;;;;;;2.08;1.63;;;28.00;64.90;;;;;;4053969;29;20041;-53
2022/12/28 00:55:23;;;;;;;1.95;1.40;;;28.10;64.80;;;;;;4055404;29;20142;-47
2022/12/28 00:57:45;;;;;;;1.95;1.30;;;28.10;64.80;;;;;;4053206;29;20036;-46
2022/12/28 01:00:08;;;;;;;1.30;1.20;;;28.10;65.00;;;;;;4055825;29;20456;-49
2022/12/28 01:02:31;;;;;;;2.80;1.48;;;28.10;65.00;;;;;;4061036;29;20048;-45
2022/12/28 01:04:53;;;;;;;2.45;1.45;;;28.20;65.20;;;;;;4059555;29;20488;-48
2022/12/28 01:07:16;;;;;;;2.72;1.40;;;28.20;65.00;;;;;;4059460;29;20540;-50
2022/12/28 01:09:38;;;;;;;1.88;1.27;;;28.20;65.10;;;;;;4059172;29;20445;-48
2022/12/28 01:12:00;;;;;;;1.65;1.33;;;28.20;65.50;;;;;;4059396;29;20032;-50
2022/12/28 01:14:23;;;;;;;2.42;1.40;;;28.20;65.20;;;;;;4053420;29;20044;-48
2022/12/28 01:16:45;;;;;;;1.83;1.15;;;28.20;65.20;;;;;;4041202;29;20036;-50
2022/12/28 01:19:11;;;;;;;2.42;1.27;;;28.20;65.60;;;;;;4059000;29;20036;-49
2022/12/28 01:21:35;;;;;;;1.80;1.23;;;28.30;65.50;;;;;;4058699;29;20246;-48
2022/12/28 01:24:01;;;;;;;1.88;1.10;;;28.30;65.70;;;;;;4060675;29;20490;-48
2022/12/28 01:26:24;;;;;;;2.03;1.15;;;28.30;65.80;;;;;;4062219;29;20449;-51
2022/12/28 01:28:46;;;;;;;1.95;1.17;;;28.30;65.60;;;;;;4041671;29;20271;-45
2022/12/28 01:31:14;;;;;;;1.50;1.00;;;28.40;65.70;;;;;;4043367;29;20063;-48
2022/12/28 01:33:38;;;;;;;2.20;1.50;;;28.40;65.90;;;;;;4055138;29;20406;-48
2022/12/28 01:36:07;;;;;;;1.30;1.00;;;28.40;65.80;;;;;;4056652;29;20091;-45
2022/12/28 01:38:29;;;;;;;1.85;0.90;;;28.40;65.80;;;;;;4057569;29;20046;-45
2022/12/28 01:40:51;;;;;;;1.35;1.00;;;28.40;65.80;;;;;;4053635;29;21107;-48
2022/12/28 01:43:14;;;;;;;1.67;1.05;;;28.50;65.80;;;;;;4057026;29;20127;-50
2022/12/28 01:45:36;;;;;;;2.00;1.15;;;28.50;65.80;;;;;;4056465;29;20340;-49
2022/12/28 01:47:59;;;;;;;2.85;0.95;;;28.50;66.00;;;;;;4046375;29;20407;-46
2022/12/28 01:50:26;;;;;;;1.95;1.05;;;28.50;66.00;;;;;;4048353;29;20370;-45
2022/12/28 01:52:54;;;;;;;2.40;1.23;;;28.50;65.90;;;;;;4045098;29;20107;-44
2022/12/28 01:55:25;;;;;;;1.23;0.90;;;28.50;65.80;;;;;;4046348;29;20052;-53
2022/12/28 01:58:39;;;;;;;1.02;0.70;;;28.60;66.00;;;;;;4052546;29;20039;-51
2022/12/28 02:01:02;;;;;;;1.48;1.00;;;28.60;66.10;;;;;;3990467;29;20564;-48
2022/12/28 02:03:27;;;;;;;3.30;1.20;;;28.60;65.90;;;;;;3987838;29;20048;-51
2022/12/28 02:05:53;;;;;;;0.98;0.80;;;28.60;66.00;;;;;;4027458;29;20111;-49
2022/12/28 02:08:22;;;;;;;3.00;0.82;;;28.60;66.00;;;;;;4047818;29;20088;-53
2022/12/28 02:10:45;;;;;;;1.23;0.88;;;28.70;66.10;;;;;;4055474;29;20044;-52
2022/12/28 02:13:08;;;;;;;1.15;0.75;;;28.70;66.10;;;;;;4046441;29;20048;-52
2022/12/28 02:15:31;;;;;;;1.25;0.80;;;28.70;66.10;;;;;;4060005;29;20078;-50
2022/12/28 02:17:54;;;;;;;2.08;0.70;;;28.80;66.70;;;;;;4058713;29;20037;-48
2022/12/28 02:20:16;;;;;;;1.88;0.80;;;28.80;66.10;;;;;;4047070;29;20044;-48
2022/12/28 02:23:06;;;;;;;2.20;1.00;;;28.80;66.10;;;;;;4063508;29;20111;-46
2022/12/28 02:26:09;;;;;;;1.15;0.70;;;28.80;66.00;;;;;;4057220;29;20036;-49
2022/12/28 02:29:08;;;;;;;2.05;0.90;;;28.80;66.10;;;;;;4026387;29;20048;-49
2022/12/28 02:31:51;;;;;;;2.28;0.98;;;28.80;66.00;;;;;;4057620;29;20132;-47
2022/12/28 02:34:26;;;;;;;1.00;0.77;;;28.90;66.10;;;;;;4055683;29;20360;-49
2022/12/28 02:36:59;;;;;;;2.10;0.80;;;28.90;66.10;;;;;;4059772;29;20044;-49
2022/12/28 02:39:27;;;;;;;1.35;0.88;;;28.90;66.10;;;;;;4057857;29;20048;-47
2022/12/28 02:41:51;;;;;;;1.55;0.82;;;29.00;66.20;;;;;;4053269;29;20192;-50
2022/12/28 02:50:04;;;;;;;1.58;0.80;;;29.00;66.10;;;;;;4054249;29;20032;-49
2022/12/28 02:52:44;;;;;;;1.77;0.90;;;29.10;66.30;;;;;;4061219;29;20130;-49
2022/12/28 02:58:27;;;;;;;1.70;0.77;;;29.10;66.10;;;;;;4054474;29;20493;-49
2022/12/28 03:01:18;;;;;;;1.30;0.80;;;29.10;66.10;;;;;;4058306;29;20044;-51
2022/12/28 03:03:52;;;;;;;1.65;0.90;;;29.10;66.10;;;;;;4044156;29;20039;-48
2022/12/28 03:09:52;;;;;;;1.92;0.80;;;29.20;66.20;;;;;;4045487;29;20044;-51
2022/12/28 03:12:30;;;;;;;2.42;0.73;;;29.20;66.20;;;;;;4061997;29;20036;-51
2022/12/28 03:15:08;;;;;;;1.38;0.90;;;29.20;66.10;;;;;;4058453;29;20098;-49
2022/12/28 03:31:19;;;;;;;1.25;0.70;;;29.30;66.10;;;;;;4058638;29;20046;-46
2022/12/28 03:33:51;;;;;;;1.92;0.90;;;29.30;66.00;;;;;;4036894;29;20036;-48
2022/12/28 03:36:32;;;;;;;1.15;0.70;;;29.30;66.00;;;;;;4052649;29;20131;-45
2022/12/28 03:39:03;;;;;;;1.15;0.82;;;29.40;65.90;;;;;;4056361;29;20115;-46
2022/12/28 03:41:48;;;;;;;1.67;0.80;;;29.40;65.90;;;;;;4058736;29;20445;-46
2022/12/28 03:44:22;;;;;;;1.75;0.90;;;29.50;65.90;;;;;;4058289;29;20040;-46
2022/12/28 03:46:58;;;;;;;2.28;1.00;;;29.50;65.80;;;;;;4043655;29;20039;-47
2022/12/28 03:49:22;;;;;;;1.98;1.10;;;29.50;65.90;;;;;;4049009;29;20065;-47
2022/12/28 03:51:47;;;;;;;3.28;0.98;;;29.50;65.90;;;;;;4050620;29;20401;-51
2022/12/28 03:54:15;;;;;;;1.80;0.85;;;29.50;65.90;;;;;;4041837;29;20048;-47
2022/12/28 03:56:47;;;;;;;1.70;0.90;;;29.60;66.40;;;;;;4046651;29;20048;-45
2022/12/28 03:59:09;;;;;;;1.05;0.60;;;29.60;65.90;;;;;;4044489;29;20662;-46
2022/12/28 04:01:31;;;;;;;1.98;0.90;;;29.60;65.90;;;;;;4042148;29;20053;-52
2022/12/28 04:03:54;;;;;;;1.42;0.90;;;29.60;65.80;;;;;;4047453;29;20083;-50
2022/12/28 04:06:19;;;;;;;1.42;0.98;;;29.60;65.90;;;;;;4045302;29;20044;-52
2022/12/28 04:09:01;;;;;;;2.60;1.05;;;29.70;65.80;;;;;;4046615;29;20213;-47
2022/12/28 04:11:23;;;;;;;1.55;0.77;;;29.70;65.80;;;;;;4036482;29;20350;-50
2022/12/28 04:13:46;;;;;;;1.00;0.50;;;29.70;65.70;;;;;;4055637;29;20496;-49
2022/12/28 04:16:12;;;;;;;2.08;0.98;;;29.70;66.30;;;;;;4041410;29;20252;-51
2022/12/28 04:18:35;;;;;;;2.03;0.90;;;29.80;65.70;;;;;;4049406;29;20175;-51
2022/12/28 04:20:58;;;;;;;1.98;0.80;;;29.80;65.60;;;;;;4062946;29;20061;-46
2022/12/28 04:23:20;;;;;;;1.38;0.60;;;29.90;65.50;;;;;;4061145;29;20151;-48
2022/12/28 04:25:43;;;;;;;1.65;0.77;;;29.90;65.50;;;;;;4061994;29;20079;-50
2022/12/28 04:28:05;;;;;;;1.77;0.93;;;29.90;65.20;;;;;;4063007;29;20040;-50
2022/12/28 04:30:28;;;;;;;2.22;1.20;;;30.00;65.20;;;;;;4060841;29;20453;-51
2022/12/28 04:32:50;;;;;;;2.33;1.13;;;30.00;65.10;;;;;;4058606;29;20036;-50
2022/12/28 04:35:12;;;;;;;1.85;1.10;;;30.00;65.10;;;;;;4058721;29;20051;-51
2022/12/28 04:37:38;;;;;;;2.53;1.05;;;30.10;65.10;;;;;;4046562;29;20521;-51
2022/12/28 04:43:32;;;;;;;2.00;0.80;;;30.20;64.80;;;;;;4031096;29;20498;-46
2022/12/28 04:46:00;;;;;;;1.33;0.90;;;30.20;64.60;;;;;;4064219;29;20040;-51
2022/12/28 04:48:22;;;;;;;2.38;1.10;;;30.30;64.60;;;;;;4057374;29;20041;-49
2022/12/28 04:50:45;;;;;;;2.85;0.88;;;30.30;64.40;;;;;;4054969;29;20504;-47
2022/12/28 04:53:07;;;;;;;0.97;0.63;;;30.40;64.40;;;;;;4059545;29;20056;-46
2022/12/28 04:55:30;;;;;;;1.67;0.75;;;30.40;64.30;;;;;;4059463;29;20496;-45
2022/12/28 04:57:52;;;;;;;2.42;0.80;;;30.40;64.20;;;;;;4068666;29;20720;-45
2022/12/28 05:00:15;;;;;;;2.97;0.90;;;30.50;64.20;;;;;;4062232;29;20200;-44
2022/12/28 05:02:38;;;;;;;1.13;0.77;;;30.60;64.10;;;;;;4060209;29;20116;-45
2022/12/28 05:05:00;;;;;;;0.90;0.60;;;30.60;64.10;;;;;;4056369;29;20037;-46
2022/12/28 05:07:23;;;;;;;1.10;0.90;;;30.70;64.00;;;;;;4047400;29;20096;-50
2022/12/28 05:09:45;;;;;;;2.47;1.10;;;30.70;63.90;;;;;;4058158;29;20051;-48
2022/12/28 05:12:08;;;;;;;2.28;0.88;;;30.70;63.80;;;;;;4051568;29;20417;-47
2022/12/28 05:14:30;;;;;;;1.88;0.88;;;30.80;63.70;;;;;;4051535;29;20354;-49
2022/12/28 05:16:53;;;;;;;1.15;0.80;;;30.80;63.60;;;;;;4052116;29;20775;-47
2022/12/28 05:19:16;;;;;;;3.05;0.90;;;30.90;63.50;;;;;;4057574;29;20471;-46
2022/12/28 05:21:38;;;;;;;1.65;0.80;;;31.00;63.50;;;;;;4053874;29;20487;-49
2022/12/28 05:24:01;;;;;;;2.43;0.97;;;31.00;63.30;;;;;;4054026;29;20040;-44
2022/12/28 05:26:27;;;;;;;1.45;1.00;;;31.10;63.30;;;;;;4052931;29;20116;-44
2022/12/28 05:28:50;;;;;;;1.52;0.65;;;31.10;63.10;;;;;;4042487;29;20033;-50
2022/12/28 05:31:18;;;;;;;1.48;0.65;;;31.20;63.00;;;;;;4051538;29;20161;-46
2022/12/28 05:33:41;;;;;;;3.30;1.00;;;31.20;62.90;;;;;;4053312;29;20395;-45
2022/12/28 05:36:09;;;;;;;1.58;0.75;;;31.30;62.80;;;;;;4050661;29;20508;-44
2022/12/28 05:38:32;;;;;;;1.13;0.60;;;31.30;62.70;;;;;;4036663;29;20064;-44
2022/12/28 05:40:55;;;;;;;3.53;0.77;;;31.40;62.60;;;;;;4050471;29;20032;-46
2022/12/28 05:43:17;;;;;;;2.28;1.00;;;31.40;62.40;;;;;;4053289;29;20134;-46
2022/12/28 05:45:40;;;;;;;1.25;0.82;;;31.50;62.50;;;;;;4049841;29;20511;-43
2022/12/28 05:48:02;;;;;;;1.52;0.85;;;31.60;62.40;;;;;;4036731;29;20120;-49
2022/12/28 05:50:24;;;;;;;1.70;0.88;;;31.60;61.90;;;;;;4045129;29;20041;-45
2022/12/28 05:52:47;;;;;;;2.38;0.82;;;31.70;62.20;;;;;;4046168;29;20229;-51
2022/12/28 05:55:10;;;;;;;1.57;0.87;;;31.70;62.00;;;;;;4049862;29;20052;-50
2022/12/28 05:57:32;;;;;;;3.30;1.00;;;31.80;62.10;;;;;;4046196;29;20613;-44
2022/12/28 05:59:55;;;;;;;3.22;1.38;;;31.80;61.90;;;;;;4047585;29;20033;-49
2022/12/28 06:02:17;;;;;;;1.80;0.80;;;31.90;61.80;;;;;;4049551;29;20365;-45
2022/12/28 06:04:39;;;;;;;1.77;0.68;;;32.00;61.90;;;;;;4053358;29;20578;-50
2022/12/28 06:07:02;;;;;;;3.35;0.75;;;32.00;61.80;;;;;;4049270;29;20040;-53
2022/12/28 06:09:24;;;;;;;2.88;0.73;;;32.00;61.30;;;;;;4056726;29;20044;-48
2022/12/28 06:11:47;;;;;;;2.95;1.08;;;32.10;61.10;;;;;;4043175;29;20072;-45
2022/12/28 06:14:09;;;;;;;3.63;1.20;;;32.00;60.70;;;;;;4057238;29;20040;-46
2022/12/28 06:16:35;;;;;;;2.17;0.98;;;32.10;60.60;;;;;;4055308;29;20469;-48
2022/12/28 06:18:58;;;;;;;2.08;1.20;;;32.10;60.80;;;;;;4052198;29;20044;-45
2022/12/28 06:21:23;;;;;;;2.33;0.88;;;32.20;60.80;;;;;;4056288;29;20685;-44
2022/12/28 06:23:47;;;;;;;3.10;0.95;;;32.30;60.90;;;;;;4053267;29;20041;-47
2022/12/28 06:26:11;;;;;;;;;;;32.30;60.80;;;;;;4045422;29;20036;-49
2022/12/28 06:28:37;;;;;;;2.00;0.75;;;32.40;60.80;;;;;;4045870;29;19920;-46
2022/12/28 06:31:09;;;;;;;1.17;0.80;;;32.40;60.60;;;;;;4073538;23;20044;-59
2022/12/28 06:33:32;;;;;;;2.15;1.02;;;32.50;60.60;;;;;;4045108;29;20515;-57
2022/12/28 06:35:55;;;;;;;2.95;1.05;;;32.50;60.50;;;;;;4047021;29;20219;-54
2022/12/28 06:38:18;;;;;;;2.90;1.10;;;32.60;60.40;;;;;;4049450;29;20048;-60
2022/12/28 06:40:40;;;;;;;1.83;1.10;;;32.60;60.40;;;;;;4048986;29;20283;-57
2022/12/28 06:43:02;;;;;;;2.33;0.88;;;32.60;60.40;;;;;;4056039;29;20304;-56
2022/12/28 06:45:25;;;;;;;3.22;0.90;;;32.60;60.30;;;;;;4054561;29;20412;-57
2022/12/28 06:47:47;;;;;;;3.60;1.20;;;32.70;61.00;;;;;;4056998;29;20045;-59
2022/12/28 06:50:10;;;;;;;3.25;1.35;;;32.70;60.30;;;;;;4053663;29;20070;-56
2022/12/28 06:52:32;;;;;;;2.07;0.87;;;32.70;60.30;;;;;;4054414;29;20075;-57
2022/12/28 06:54:55;;;;;;;2.83;1.08;;;32.70;60.40;;;;;;4055459;29;20547;-51
2022/12/28 06:57:17;;;;;;;2.20;1.00;;;32.70;60.30;;;;;;4056530;29;20161;-54
2022/12/28 06:59:40;;;;;;;2.42;1.15;;;32.80;60.40;;;;;;4057243;29;20037;-53
2022/12/28 07:02:02;;;;;;;3.05;0.85;;;32.80;60.20;;;;;;4058783;29;20048;-57
2022/12/28 07:04:24;;;;;;;2.75;1.08;;;32.80;60.30;;;;;;4056441;29;20116;-57
2022/12/28 07:06:47;;;;;;;1.65;0.60;;;32.80;60.20;;;;;;4039885;29;20273;-57
2022/12/28 07:09:12;;;;;;;1.92;0.82;;;32.80;60.20;;;;;;4036304;29;20598;-57
2022/12/28 07:11:35;;;;;;;1.90;0.77;;;32.80;59.80;;;;;;4038796;29;20099;-56
2022/12/28 07:13:58;;;;;;;2.47;0.88;;;32.80;60.10;;;;;;4031843;29;20079;-56
2022/12/28 07:16:22;;;;;;;2.10;0.93;;;32.80;60.10;;;;;;4035995;29;20052;-56
2022/12/28 07:18:45;;;;;;;1.20;0.55;;;32.80;60.20;;;;;;4037469;29;20028;-55
2022/12/28 07:21:29;;;;;;;2.20;0.68;;;32.80;60.70;;;;;;4036413;29;20558;-57
2022/12/28 07:23:53;;;;;;;2.78;1.10;;;32.80;60.30;;;;;;4035203;29;20044;-52
2022/12/28 07:26:22;;;;;;;2.47;0.70;;;32.80;60.40;;;;;;4035721;29;20044;-56
2022/12/28 07:28:46;;;;;;;2.47;0.80;;;32.80;60.50;;;;;;4038928;29;20032;-57
2022/12/28 07:31:14;;;;;;;1.95;0.80;;;32.70;60.60;;;;;;4042108;29;20060;-55
2022/12/28 07:33:37;;;;;;;2.13;0.70;;;32.80;60.60;;;;;;4038260;29;20072;-55
2022/12/28 07:35:59;;;;;;;2.45;1.15;;;32.80;60.80;;;;;;4039150;29;20048;-58
2022/12/28 07:38:22;;;;;;;1.65;0.70;;;32.70;60.80;;;;;;4038588;29;20559;-56
2022/12/28 07:40:44;;;;;;;2.20;1.10;;;32.60;60.80;;;;;;4037973;29;20565;-55
2022/12/28 07:43:08;;;;;;;1.38;0.68;;;32.70;61.00;;;;;;4034444;29;20040;-57
2022/12/28 07:45:30;;;;;;;1.90;0.90;;;32.60;65.70;;;;;;4030106;29;20116;-56
2022/12/28 07:47:52;;;;;;;2.80;1.17;;;32.60;60.40;;;;;;4034712;29;20045;-57
2022/12/28 07:50:15;;;;;;;3.67;1.20;;;32.60;61.00;;;;;;4034835;29;20104;-55
2022/12/28 07:52:37;;;;;;;2.57;1.03;;;32.60;60.90;;;;;;4039032;29;21042;-55
2022/12/28 07:54:59;;;;;;;3.05;1.20;;;32.50;60.60;;;;;;4035242;29;20044;-53
2022/12/28 07:57:22;;;;;;;2.97;1.50;;;32.50;60.60;;;;;;4036716;29;20040;-56
2022/12/28 07:59:44;;;;;;;3.03;1.33;;;32.50;60.50;;;;;;4036862;29;20044;-57
2022/12/28 08:02:09;;;;;;;3.30;1.65;;;32.40;60.30;;;;;;4037513;29;20064;-57
2022/12/28 08:04:31;;;;;;;1.88;1.02;;;32.40;60.40;;;;;;4033025;29;20608;-55
2022/12/28 08:06:54;;;;;;;2.22;1.02;;;32.40;60.40;;;;;;4036286;29;20048;-52
2022/12/28 08:09:16;;;;;;;3.97;1.40;;;32.40;60.20;;;;;;4035755;29;20036;-51
2022/12/28 08:11:41;;;;;;;4.35;1.60;;;32.30;60.20;;;;;;4038054;29;20533;-55
2022/12/28 08:14:05;;;;;;;4.70;1.60;;;32.30;60.30;;;;;;4040343;29;20397;-53
2022/12/28 08:16:36;;;;;;;5.28;1.52;;;32.30;60.30;;;;;;4041144;29;20047;-52
2022/12/28 08:18:59;;;;;;;3.05;1.33;;;32.20;60.10;;;;;;4040019;29;20044;-53
2022/12/28 08:21:23;;;;;;;3.10;1.35;;;32.20;60.20;;;;;;4042018;29;20596;-55
2022/12/28 08:23:46;;;;;;;4.03;1.63;;;32.20;60.30;;;;;;4042472;29;20036;-55
2022/12/28 08:26:13;;;;;;;3.83;1.67;;;32.10;60.40;;;;;;4044639;29;20123;-54
2022/12/28 08:28:36;;;;;;;3.65;1.40;;;32.10;60.50;;;;;;4040518;29;20206;-55
2022/12/28 08:31:05;;;;;;;4.22;1.60;;;32.10;60.50;;;;;;4042399;29;20048;-57
2022/12/28 08:33:27;;;;;;;3.10;1.20;;;32.00;60.50;;;;;;4041597;29;20053;-55
2022/12/28 08:35:50;;;;;;;5.22;1.65;;;32.00;60.60;;;;;;4042551;29;20591;-51
2022/12/28 08:38:12;;;;;;;4.80;1.77;;;32.00;60.60;;;;;;4044867;29;20047;-55
2022/12/28 08:40:35;;;;;;;4.15;1.50;;;32.00;60.60;;;;;;4042764;29;20095;-54
2022/12/28 08:42:58;;;;;;;4.18;1.50;;;32.00;60.70;;;;;;4042923;29;20059;-53
2022/12/28 08:45:21;;;;;;;3.00;1.40;;;31.90;60.70;;;;;;4034484;29;20053;-57
2022/12/28 08:47:43;;;;;;;5.97;1.88;;;31.90;60.70;;;;;;4043628;29;20084;-55
2022/12/28 08:50:06;;;;;;;4.70;1.60;;;31.90;60.70;;;;;;4039340;29;20489;-53
2022/12/28 08:52:29;;;;;;;3.17;1.30;;;31.90;60.70;;;;;;4041230;29;20048;-56
2022/12/28 08:54:51;;;;;;;2.80;1.25;;;31.90;60.70;;;;;;4037120;29;20417;-53
2022/12/28 08:57:13;;;;;;;3.63;1.35;;;31.90;60.60;;;;;;4043854;29;20310;-50
2022/12/28 08:59:36;;;;;;;4.00;1.45;;;31.80;60.50;;;;;;4042947;29;20044;-48
2022/12/28 09:01:58;;;;;;;4.00;1.55;;;31.80;60.60;;;;;;4035383;29;20036;-55
2022/12/28 09:04:22;;;;;;;4.10;1.50;;;31.80;60.70;;;;;;4042237;29;20045;-51
2022/12/28 09:06:45;;;;;;;4.00;1.48;;;31.80;60.70;;;;;;4046967;29;20064;-53
2022/12/28 09:09:12;;;;;;;4.72;1.60;;;31.70;60.70;;;;;;4034298;29;20080;-54
2022/12/28 09:11:36;;;;;;;3.78;1.50;;;31.70;60.70;;;;;;4041899;29;20044;-52
2022/12/28 09:13:59;;;;;;;3.15;1.33;;;31.70;60.80;;;;;;4036319;29;20040;-51
2022/12/28 09:16:24;;;;;;;3.85;1.45;;;31.70;60.90;;;;;;4047791;29;20100;-54
2022/12/28 09:18:47;;;;;;;3.72;1.40;;;31.70;60.90;;;;;;4038392;29;20266;-52
2022/12/28 09:21:12;;;;;;;2.65;1.40;;;31.70;61.00;;;;;;4036528;29;20104;-56
2022/12/28 09:23:35;;;;;;;3.80;1.60;;;31.60;60.90;;;;;;4042694;29;20508;-57
2022/12/28 09:26:23;;;;;;;3.88;1.30;;;31.60;61.10;;;;;;4038144;29;20496;-54
2022/12/28 09:28:51;;;;;;;4.88;1.83;;;31.60;61.10;;;;;;4024855;29;20046;-54
2022/12/28 09:31:14;;;;;;;3.53;1.30;;;31.60;61.20;;;;;;4038366;29;20480;-55
2022/12/28 09:36:18;;;;;;;2.83;1.20;;;31.60;61.40;;;;;;4038809;29;20159;-55
2022/12/28 09:38:40;;;;;;;4.07;1.48;;;31.50;61.40;;;;;;4037142;29;20044;-50
2022/12/28 09:41:11;;;;;;;4.40;1.20;;;31.50;61.50;;;;;;4038504;29;20597;-50
2022/12/28 09:43:33;;;;;;;4.35;1.42;;;31.50;61.60;;;;;;4045392;29;20068;-52
2022/12/28 09:45:56;;;;;;;4.30;1.45;;;31.50;61.60;;;;;;4044266;29;20036;-53
2022/12/28 09:48:25;;;;;;;2.90;1.38;;;31.50;61.70;;;;;;4040540;29;20428;-52
2022/12/28 09:50:50;;;;;;;3.90;1.35;;;31.50;61.80;;;;;;4022806;29;20507;-56
2022/12/28 09:53:47;;;;;;;4.40;1.42;;;31.40;61.70;;;;;;4037469;29;20480;-51
2022/12/28 09:56:33;;;;;;;2.60;0.93;;;31.40;61.70;;;;;;3982882;29;21210;-56
2022/12/28 09:58:56;;;;;;;4.53;1.30;;;31.40;61.70;;;;;;4038877;29;20119;-53
2022/12/28 10:01:21;;;;;;;3.85;1.55;;;31.40;61.80;;;;;;4037925;29;20387;-53
2022/12/28 10:03:45;;;;;;;3.78;1.38;;;31.40;61.80;;;;;;4035360;29;20078;-53
2022/12/28 10:06:18;;;;;;;3.17;1.25;;;31.40;61.90;;;;;;4038691;29;20106;-49
2022/12/28 10:08:50;;;;;;;3.80;1.15;;;31.30;61.80;;;;;;4038068;29;20135;-52
2022/12/28 10:11:19;;;;;;;3.92;1.50;;;31.30;61.80;;;;;;4038023;29;20927;-51
2022/12/28 10:13:42;;;;;;;5.15;1.70;;;31.30;61.90;;;;;;4037455;29;20065;-56
2022/12/28 10:16:18;;;;;;;3.57;1.20;;;31.30;62.00;;;;;;4040179;29;20064;-52
2022/12/28 10:18:40;;;;;;;4.70;1.60;;;31.30;62.00;;;;;;4041853;29;20052;-55
2022/12/28 10:21:04;;;;;;;3.75;1.42;;;31.30;62.10;;;;;;4039267;29;20429;-57
2022/12/28 10:23:30;;;;;;;4.38;1.42;;;31.30;62.10;;;;;;4026748;29;20041;-53
2022/12/28 10:25:55;;;;;;;3.30;1.50;;;31.20;62.00;;;;;;4025287;29;20478;-56
2022/12/28 10:28:19;;;;;;;3.15;1.40;;;31.20;62.00;;;;;;4035863;29;20052;-56
2022/12/28 10:31:08;;;;;;;3.95;1.33;;;31.20;62.00;;;;;;4036585;29;20049;-54
2022/12/28 10:33:31;;;;;;;2.17;1.20;;;31.20;62.10;;;;;;4037388;29;20040;-55
2022/12/28 10:35:55;;;;;;;3.58;1.38;;;31.20;62.80;;;;;;4038912;29;20067;-52
2022/12/28 10:38:23;;;;;;;4.53;1.70;;;31.20;62.20;;;;;;4036119;29;20045;-56
2022/12/28 10:40:57;;;;;;;3.33;1.30;;;31.20;62.20;;;;;;4032123;29;20048;-54
2022/12/28 10:43:19;;;;;;;3.08;1.35;;;31.10;62.20;;;;;;4035601;29;20044;-55
2022/12/28 10:45:49;;;;;;;4.05;1.30;;;31.10;62.30;;;;;;4038591;29;20040;-53
2022/12/28 10:48:31;;;;;;;3.88;1.33;;;31.10;62.30;;;;;;4040864;29;20549;-54
2022/12/28 10:50:55;;;;;;;3.55;1.42;;;31.10;62.40;;;;;;4038478;29;20055;-55
2022/12/28 10:53:30;;;;;;;3.75;1.42;;;31.10;63.10;;;;;;4039545;29;20089;-57
2022/12/28 10:56:06;;;;;;;4.88;1.70;;;31.00;62.30;;;;;;4038669;29;20605;-54
2022/12/28 10:58:29;;;;;;;2.38;1.10;;;31.00;62.30;;;;;;4030499;29;20048;-53
2022/12/28 11:01:06;;;;;;;3.23;1.30;;;31.00;62.40;;;;;;4035187;29;20181;-54
2022/12/28 11:03:34;;;;;;;4.78;1.52;;;31.00;62.40;;;;;;4037420;29;20131;-54
2022/12/28 11:06:14;;;;;;;4.78;1.50;;;31.00;62.50;;;;;;4038508;29;20041;-50
2022/12/28 11:08:38;;;;;;;3.95;1.33;;;31.00;62.50;;;;;;4041357;29;20040;-58
2022/12/28 11:11:01;;;;;;;3.08;1.25;;;31.00;62.60;;;;;;4040174;29;20040;-55
2022/12/28 11:13:23;;;;;;;2.60;1.30;;;30.90;62.40;;;;;;4048316;29;20124;-55
2022/12/28 11:15:46;;;;;;;4.93;1.73;;;30.90;62.50;;;;;;4030675;29;20472;-51
2022/12/28 11:18:18;;;;;;;3.67;1.50;;;30.90;62.50;;;;;;4038542;29;20040;-50
2022/12/28 11:20:50;;;;;;;3.03;1.40;;;30.90;62.50;;;;;;4036427;29;20601;-52
2022/12/28 11:23:33;;;;;;;4.68;1.48;;;30.90;62.60;;;;;;4044217;29;20382;-51
2022/12/28 11:25:55;;;;;;;4.68;1.77;;;30.90;62.60;;;;;;4036907;29;20048;-52
2022/12/28 11:28:22;;;;;;;3.38;1.60;;;30.90;62.60;;;;;;4035551;29;20048;-57
2022/12/28 11:30:45;;;;;;;3.55;1.33;;;30.80;62.60;;;;;;4023532;29;20053;-56
2022/12/28 11:33:42;;;;;;;3.47;1.40;;;30.80;62.60;;;;;;4031572;29;20036;-56
2022/12/28 11:36:05;;;;;;;5.68;1.52;;;30.80;62.70;;;;;;4032371;29;20911;-58
2022/12/28 11:38:56;;;;;;;;;;;30.80;62.80;;;;;;4037886;29;20787;-52
2022/12/28 11:41:26;;;;;;;4.00;1.40;;;30.70;62.80;;;;;;4036883;29;20299;-52
2022/12/28 11:43:53;;;;;;;5.28;1.90;;;30.70;62.90;;;;;;4042074;29;20572;-48
2022/12/28 11:46:21;;;;;;;5.82;1.73;;;30.60;63.00;;;;;;4038824;29;20427;-52
2022/12/28 11:48:50;;;;;;;4.25;1.98;;;30.70;62.70;;;;;;4040352;29;20056;-57
2022/12/28 11:51:20;;;;;;;3.92;1.45;;;30.60;62.60;;;;;;4038310;29;20040;-58
2022/12/28 11:53:46;;;;;;;3.60;1.65;;;30.60;62.70;;;;;;4038592;29;20144;-55
2022/12/28 11:56:13;;;;;;;3.97;1.40;;;30.50;62.90;;;;;;4035674;29;21488;-49
2022/12/28 11:58:41;;;;;;;4.93;1.92;;;30.60;63.10;;;;;;4039894;29;20062;-51
2022/12/28 12:01:04;;;;;;;4.00;1.65;;;30.60;63.20;;;;;;4036131;29;20284;-52
2022/12/28 12:03:56;;;;;;;3.67;1.60;;;30.50;63.00;;;;;;4038786;29;20037;-56
2022/12/28 12:06:19;;;;;;;5.53;1.90;;;30.50;63.20;;;;;;4034755;29;20052;-54
2022/12/28 12:08:42;;;;;;;5.60;1.90;;;30.50;63.30;;;;;;4035960;29;20045;-54
2022/12/28 12:11:39;;;;;;;6.45;1.92;;;30.40;63.60;;;;;;4037798;29;20040;-56
2022/12/28 12:14:01;;;;;;;5.22;1.60;;;30.40;64.20;;;;;;4036932;29;20309;-56
2022/12/28 12:16:48;;;;;;;3.67;1.70;;;30.40;63.90;;;;;;4038100;29;20084;-56
2022/12/28 12:19:24;;;;;;;6.38;2.13;;;30.40;63.70;;;;;;4038730;29;20044;-55
2022/12/28 12:22:00;;;;;;;4.93;2.08;;;30.40;63.80;;;;;;4039711;29;20048;-57
2022/12/28 12:24:31;;;;;;;9.13;1.88;;;30.40;63.00;;;;;;4038326;29;20048;-57
2022/12/28 12:27:16;;;;;;;6.57;2.22;;;30.40;62.00;;;;;;4042588;29;20047;-52
2022/12/28 12:29:46;;;;;;;7.68;2.47;;;30.40;61.30;;;;;;4037345;29;20036;-50
2022/12/28 12:32:27;;;;;;;4.78;1.98;;;30.30;61.70;;;;;;4037324;29;20091;-50
2022/12/28 12:34:54;;;;;;;5.47;1.90;;;30.30;62.20;;;;;;4035166;29;20952;-56
2022/12/28 12:37:40;;;;;;;4.88;2.00;;;30.30;62.60;;;;;;4044051;29;20576;-60
2022/12/28 12:40:21;;;;;;;22.85;3.88;;;30.30;62.90;;;;;;4036262;29;20106;-57
2022/12/28 12:43:07;;;;;;;19.48;3.47;;;30.20;63.40;;;;;;4041311;29;20044;-59
2022/12/28 12:45:48;;;;;;;11.73;3.55;;;30.30;63.80;;;;;;4041409;29;20040;-56
2022/12/28 12:48:35;;;;;;;13.25;2.97;;;30.20;64.00;;;;;;4041234;29;20132;-56
2022/12/28 12:51:15;;;;;;;6.88;2.00;;;30.20;64.90;;;;;;4038628;29;20543;-57
2022/12/28 12:53:38;;;;;;;9.32;2.30;;;30.10;64.90;;;;;;4039618;29;20143;-54
2022/12/28 12:56:15;;;;;;;7.40;1.90;;;30.10;65.20;;;;;;4039096;29;20155;-53
2022/12/28 12:58:46;;;;;;;4.55;1.80;;;30.10;65.20;;;;;;4043738;29;20048;-48
2022/12/28 13:01:18;;;;;;;6.65;2.42;;;30.10;65.20;;;;;;4042105;29;20036;-57
2022/12/28 13:03:52;;;;;;;6.75;2.08;;;30.10;65.40;;;;;;4042603;29;20080;-58
2022/12/28 13:06:19;;;;;;;5.07;1.48;;;30.10;65.70;;;;;;4039698;29;20175;-52
2022/12/28 13:09:02;;;;;;;3.17;1.33;;;30.00;65.60;;;;;;4043079;29;20466;-48
2022/12/28 13:11:25;;;;;;;4.33;1.77;;;30.10;65.60;;;;;;4042644;29;20043;-49
2022/12/28 13:13:51;;;;;;;4.65;1.38;;;30.00;65.60;;;;;;4039822;29;20153;-51
2022/12/28 13:16:32;;;;;;;4.90;1.50;;;30.00;65.60;;;;;;4044305;29;20088;-60
2022/12/28 13:19:05;;;;;;;5.68;1.55;;;30.00;65.60;;;;;;4029319;29;20549;-48